createdAt,value
2023-05-14T00:00:18.290Z,61.0455
2023-05-14T00:01:20.010Z,60.8044
2023-05-14T00:02:21.636Z,60.4027
2023-05-14T00:03:23.361Z,60.1394
2023-05-14T00:04:24.895Z,60.0367
2023-05-14T00:05:26.563Z,60.2110
2023-05-14T00:06:28.180Z,60.3870
2023-05-14T00:07:30.273Z,60.5277
2023-05-14T00:08:31.460Z,60.4120
2023-05-14T00:09:33.158Z,60.4061
2023-05-14T00:10:34.766Z,60.2752
2023-05-14T00:11:36.445Z,60.1122
2023-05-14T00:12:38.070Z,60.0865
2023-05-14T00:13:39.701Z,60.1903
2023-05-14T00:14:41.366Z,60.0919
2023-05-14T00:15:43.017Z,60.5323
2023-05-14T00:16:44.629Z,61.2787
2023-05-14T00:17:46.380Z,61.1140
2023-05-14T00:18:47.916Z,60.8354
2023-05-14T00:19:49.571Z,60.5057
2023-05-14T00:20:51.728Z,60.3810
2023-05-14T00:21:52.832Z,60.2483
2023-05-14T00:22:54.539Z,60.1727
2023-05-14T00:23:56.159Z,60.3039
2023-05-14T00:24:57.822Z,60.2860
2023-05-14T00:25:59.426Z,60.2221
2023-05-14T00:27:01.079Z,60.1014
2023-05-14T00:28:02.744Z,60.1370
2023-05-14T00:29:04.331Z,60.1654
2023-05-14T00:30:06.113Z,60.1480
2023-05-14T00:31:07.697Z,60.1747
2023-05-14T00:32:09.258Z,60.3564
2023-05-14T00:33:10.998Z,60.1826
2023-05-14T00:34:12.568Z,59.9934
2023-05-14T00:35:14.251Z,60.1200
2023-05-14T00:36:15.847Z,60.0704
2023-05-14T00:37:17.536Z,60.1272
2023-05-14T00:38:19.278Z,60.1486
2023-05-14T00:39:20.754Z,60.1870
2023-05-14T00:40:22.871Z,60.2583
2023-05-14T00:41:24.065Z,60.1420
2023-05-14T00:42:25.724Z,60.2346
2023-05-14T00:43:27.386Z,60.1907
2023-05-14T00:44:29.089Z,60.0528
2023-05-14T00:45:30.637Z,60.1673
2023-05-14T00:46:32.324Z,60.2220
2023-05-14T00:47:34.030Z,60.0247
2023-05-14T00:48:35.623Z,60.0274
2023-05-14T00:49:37.248Z,60.2635
2023-05-14T00:50:38.970Z,60.3073
2023-05-14T00:51:40.524Z,60.3788
2023-05-14T00:52:42.255Z,60.3762
2023-05-14T00:53:43.859Z,60.2872
2023-05-14T00:54:45.556Z,60.1770
2023-05-14T00:55:47.027Z,60.1607
2023-05-14T00:56:48.754Z,60.4408
2023-05-14T00:57:50.317Z,60.4247
2023-05-14T00:58:52.996Z,60.2484
2023-05-14T00:59:53.753Z,60.2696
2023-05-14T01:00:55.291Z,60.2370
2023-05-14T01:01:56.922Z,60.2317
2023-05-14T01:02:58.701Z,60.4167
2023-05-14T01:04:00.290Z,60.4565
2023-05-14T01:05:02.319Z,60.2614
2023-05-14T01:06:03.495Z,60.1768
2023-05-14T01:07:05.139Z,60.1831
2023-05-14T01:08:06.770Z,60.0318
2023-05-14T01:09:08.431Z,60.0978
2023-05-14T01:10:11.044Z,60.2343
2023-05-14T01:11:11.753Z,60.2322
2023-05-14T01:12:13.355Z,60.4933
2023-05-14T01:13:14.968Z,60.4148
2023-05-14T01:14:17.108Z,60.2670
2023-05-14T01:15:18.613Z,60.3657
2023-05-14T01:16:20.774Z,60.2265
2023-05-14T01:17:21.534Z,60.0303
2023-05-14T01:18:23.218Z,60.5250
2023-05-14T01:19:24.915Z,60.6606
2023-05-14T01:20:26.639Z,60.6280
2023-05-14T01:21:28.201Z,60.5229
2023-05-14T01:22:29.919Z,60.4910
2023-05-14T01:23:31.398Z,60.4013
2023-05-14T01:24:33.085Z,60.2261
2023-05-14T01:25:34.789Z,60.2519
2023-05-14T01:26:36.472Z,60.4756
2023-05-14T01:27:38.704Z,60.4600
2023-05-14T01:28:39.794Z,60.3688
2023-05-14T01:29:41.317Z,60.2702
2023-05-14T01:30:43.355Z,60.0593
2023-05-14T01:31:44.651Z,60.1191
2023-05-14T01:32:46.322Z,60.1318
2023-05-14T01:33:47.889Z,60.2571
2023-05-14T01:34:49.542Z,60.3229
2023-05-14T01:35:51.251Z,60.2535
2023-05-14T01:36:53.263Z,60.3403
2023-05-14T01:37:54.502Z,60.2069
2023-05-14T01:38:56.109Z,60.3892
2023-05-14T01:39:57.798Z,60.4467
2023-05-14T01:40:59.426Z,60.4408
2023-05-14T01:42:01.318Z,60.3442
2023-05-14T01:43:02.759Z,60.2439
2023-05-14T01:44:04.485Z,60.1757
2023-05-14T01:45:05.973Z,60.2493
2023-05-14T01:46:07.669Z,60.2369
2023-05-14T01:47:09.800Z,60.2605
2023-05-14T01:48:11.140Z,60.4638
2023-05-14T01:49:12.542Z,60.7162
2023-05-14T01:50:14.241Z,60.7277
2023-05-14T01:51:15.861Z,60.3485
2023-05-14T01:52:17.814Z,60.1676
2023-05-14T01:53:19.216Z,60.3656
2023-05-14T01:54:20.824Z,60.5089
2023-05-14T01:55:22.451Z,60.7392
2023-05-14T01:56:24.119Z,60.4190
2023-05-14T01:57:25.796Z,60.5717
2023-05-14T01:58:27.386Z,60.3776
2023-05-14T01:59:29.104Z,60.3156
2023-05-14T02:00:30.613Z,60.4051
2023-05-14T02:01:33.325Z,60.3224
2023-05-14T02:02:33.969Z,60.3483
2023-05-14T02:03:35.576Z,60.2528
2023-05-14T02:04:37.203Z,60.2539
2023-05-14T02:05:38.841Z,60.3086
2023-05-14T02:06:40.710Z,60.1554
2023-05-14T02:07:42.195Z,60.3186
2023-05-14T02:08:43.752Z,60.3553
2023-05-14T02:09:45.457Z,60.5683
2023-05-14T02:10:47.048Z,60.3949
2023-05-14T02:11:48.795Z,60.2763
2023-05-14T02:12:50.386Z,60.2696
2023-05-14T02:13:52.045Z,60.2058
2023-05-14T02:14:53.639Z,60.1382
2023-05-14T02:15:55.350Z,60.1616
2023-05-14T02:16:56.949Z,60.2952
2023-05-14T02:17:58.836Z,60.2197
2023-05-14T02:19:01.281Z,60.0943
2023-05-14T02:20:01.878Z,60.0856
2023-05-14T02:21:03.549Z,60.3436
2023-05-14T02:22:05.164Z,60.3925
2023-05-14T02:23:07.761Z,60.2358
2023-05-14T02:24:08.498Z,60.0643
2023-05-14T02:25:10.080Z,60.2382
2023-05-14T02:26:11.708Z,60.1180
2023-05-14T02:27:13.395Z,59.9880
2023-05-14T02:28:15.747Z,60.3260
2023-05-14T02:29:16.678Z,60.4166
2023-05-14T02:30:18.296Z,60.3102
2023-05-14T02:31:20.068Z,60.3013
2023-05-14T02:32:21.603Z,60.3250
2023-05-14T02:33:23.375Z,60.1877
2023-05-14T02:34:25.051Z,60.1335
2023-05-14T02:35:26.542Z,60.5167
2023-05-14T02:36:28.245Z,60.2750
2023-05-14T02:37:29.824Z,60.3146
2023-05-14T02:38:31.491Z,60.3440
2023-05-14T02:39:33.077Z,60.4552
2023-05-14T02:40:34.773Z,60.4647
2023-05-14T02:41:36.346Z,60.4262
2023-05-14T02:42:38.221Z,60.4037
2023-05-14T02:43:39.641Z,60.2255
2023-05-14T02:44:41.334Z,60.1445
2023-05-14T02:45:42.968Z,60.1821
2023-05-14T02:46:44.623Z,60.1143
2023-05-14T02:47:46.384Z,60.0647
2023-05-14T02:48:48.739Z,60.0801
2023-05-14T02:49:49.526Z,60.2574
2023-05-14T02:50:51.222Z,60.2565
2023-05-14T02:51:52.799Z,60.2637
2023-05-14T02:52:54.703Z,61.6081
2023-05-14T02:53:57.196Z,61.1329
2023-05-14T02:54:58.866Z,60.6838
2023-05-14T02:55:59.622Z,60.0634
2023-05-14T02:57:01.188Z,58.9686
2023-05-14T02:58:02.863Z,58.2733
2023-05-14T02:59:04.579Z,58.0006
2023-05-14T03:00:06.151Z,57.7199
2023-05-14T03:01:07.867Z,57.8805
2023-05-14T03:02:09.407Z,57.4784
2023-05-14T03:03:11.118Z,57.3708
2023-05-14T03:04:12.688Z,57.3574
2023-05-14T03:05:14.314Z,56.8456
2023-05-14T03:06:15.995Z,56.5361
2023-05-14T03:07:17.643Z,56.3887
2023-05-14T03:08:19.329Z,56.5884
2023-05-14T03:09:20.900Z,56.5022
2023-05-14T03:10:22.686Z,56.4777
2023-05-14T03:11:24.340Z,56.2375
2023-05-14T03:12:25.821Z,56.4870
2023-05-14T03:13:27.507Z,56.5681
2023-05-14T03:14:29.146Z,56.2007
2023-05-14T03:15:30.791Z,56.2011
2023-05-14T03:16:33.379Z,56.1625
2023-05-14T03:17:34.088Z,56.1743
2023-05-14T03:18:35.836Z,56.2107
2023-05-14T03:19:37.370Z,55.9281
2023-05-14T03:20:38.932Z,55.9683
2023-05-14T03:21:40.630Z,56.0085
2023-05-14T03:22:42.235Z,55.9960
2023-05-14T03:23:43.969Z,55.9451
2023-05-14T03:24:45.538Z,55.9650
2023-05-14T03:25:47.562Z,55.9822
2023-05-14T03:26:49.208Z,56.0033
2023-05-14T03:27:50.593Z,56.0133
2023-05-14T03:28:52.100Z,56.1922
2023-05-14T03:29:53.746Z,56.3865
2023-05-14T03:30:55.745Z,56.1397
2023-05-14T03:31:57.354Z,56.0013
2023-05-14T03:32:58.990Z,55.8102
2023-05-14T03:34:00.409Z,55.7049
2023-05-14T03:35:02.017Z,56.2006
2023-05-14T03:36:03.686Z,56.1643
2023-05-14T03:37:05.266Z,56.1064
2023-05-14T03:38:07.008Z,55.8721
2023-05-14T03:39:08.648Z,55.8808
2023-05-14T03:40:10.267Z,55.9362
2023-05-14T03:41:11.864Z,55.8664
2023-05-14T03:42:13.568Z,56.0069
2023-05-14T03:43:15.160Z,56.2079
2023-05-14T03:44:16.854Z,56.2109
2023-05-14T03:45:18.558Z,56.1175
2023-05-14T03:46:20.129Z,56.0743
2023-05-14T03:47:22.064Z,56.1814
2023-05-14T03:48:23.841Z,56.4043
2023-05-14T03:49:25.067Z,56.4496
2023-05-14T03:50:26.714Z,57.0437
2023-05-14T03:51:28.304Z,57.2178
2023-05-14T03:52:30.057Z,57.0527
2023-05-14T03:53:31.659Z,56.8382
2023-05-14T03:54:33.271Z,56.6404
2023-05-14T03:55:34.862Z,56.4686
2023-05-14T03:56:36.612Z,56.4672
2023-05-14T03:57:38.198Z,56.6926
2023-05-14T03:58:39.866Z,56.6308
2023-05-14T03:59:41.465Z,56.6166
2023-05-14T04:00:43.094Z,56.6751
2023-05-14T04:01:44.923Z,56.3768
2023-05-14T04:02:46.562Z,56.5038
2023-05-14T04:03:48.580Z,56.3433
2023-05-14T04:04:49.814Z,56.2703
2023-05-14T04:05:51.878Z,56.3752
2023-05-14T04:06:53.922Z,56.2966
2023-05-14T04:07:54.593Z,56.3139
2023-05-14T04:08:56.361Z,56.3503
2023-05-14T04:09:57.921Z,56.3074
2023-05-14T04:10:59.524Z,56.4674
2023-05-14T04:12:01.186Z,56.4304
2023-05-14T04:13:02.837Z,56.4973
2023-05-14T04:14:05.367Z,56.3484
2023-05-14T04:15:06.149Z,56.7009
2023-05-14T04:16:07.835Z,56.7663
2023-05-14T04:17:09.447Z,56.5624
2023-05-14T04:18:11.029Z,56.5249
2023-05-14T04:19:12.787Z,56.3787
2023-05-14T04:20:14.348Z,56.3500
2023-05-14T04:21:16.039Z,56.4580
2023-05-14T04:22:17.612Z,56.3829
2023-05-14T04:23:19.233Z,56.8679
2023-05-14T04:24:20.908Z,57.2726
2023-05-14T04:25:22.664Z,56.8895
2023-05-14T04:26:24.165Z,56.7592
2023-05-14T04:27:25.892Z,56.4403
2023-05-14T04:28:27.516Z,56.3396
2023-05-14T04:29:29.176Z,57.0516
2023-05-14T04:30:30.889Z,57.1209
2023-05-14T04:31:33.440Z,56.7112
2023-05-14T04:32:34.088Z,56.6084
2023-05-14T04:33:35.722Z,56.5110
2023-05-14T04:34:37.342Z,56.3733
2023-05-14T04:35:39.023Z,56.3984
2023-05-14T04:36:40.639Z,57.0024
2023-05-14T04:37:42.368Z,58.4003
2023-05-14T04:38:43.994Z,58.7104
2023-05-14T04:39:45.586Z,57.8691
2023-05-14T04:40:47.227Z,57.2388
2023-05-14T04:41:48.876Z,57.1091
2023-05-14T04:42:50.580Z,56.6698
2023-05-14T04:43:52.140Z,56.5840
2023-05-14T04:44:53.811Z,56.4274
2023-05-14T04:45:55.432Z,57.6103
2023-05-14T04:46:57.136Z,57.7851
2023-05-14T04:47:58.768Z,57.2792
2023-05-14T04:49:00.361Z,56.7483
2023-05-14T04:50:02.137Z,56.5296
2023-05-14T04:51:05.634Z,56.6765
2023-05-14T04:52:05.318Z,56.4054
2023-05-14T04:53:06.985Z,56.2418
2023-05-14T04:54:08.597Z,54.9504
2023-05-14T04:55:10.287Z,53.5830
2023-05-14T04:56:11.965Z,52.9377
2023-05-14T04:57:13.597Z,52.7619
2023-05-14T04:58:15.174Z,52.1139
2023-05-14T04:59:16.904Z,51.6949
2023-05-14T05:00:19.394Z,50.7404
2023-05-14T05:01:20.177Z,50.2018
2023-05-14T05:02:21.798Z,50.2119
2023-05-14T05:03:23.408Z,49.7836
2023-05-14T05:04:25.082Z,49.4926
2023-05-14T05:05:26.698Z,49.4492
2023-05-14T05:06:28.317Z,49.0849
2023-05-14T05:07:30.073Z,48.3239
2023-05-14T05:08:31.700Z,48.5382
2023-05-14T05:09:33.275Z,47.6591
2023-05-14T05:10:34.936Z,47.3565
2023-05-14T05:11:36.619Z,48.1076
2023-05-14T05:12:39.180Z,48.0610
2023-05-14T05:13:39.894Z,48.0545
2023-05-14T05:14:41.436Z,47.4595
2023-05-14T05:15:43.535Z,46.6858
2023-05-14T05:16:45.655Z,46.6194
2023-05-14T05:17:46.436Z,47.7563
2023-05-14T05:18:48.060Z,47.5988
2023-05-14T05:19:49.660Z,47.7140
2023-05-14T05:20:51.279Z,47.1102
2023-05-14T05:21:52.927Z,46.3644
2023-05-14T05:22:54.615Z,46.7033
2023-05-14T05:23:56.272Z,47.6604
2023-05-14T05:24:57.845Z,47.2607
2023-05-14T05:25:59.549Z,47.2686
2023-05-14T05:27:01.249Z,46.6519
2023-05-14T05:28:02.839Z,46.3799
2023-05-14T05:29:04.465Z,46.7394
2023-05-14T05:30:06.233Z,46.8069
2023-05-14T05:31:07.857Z,46.7053
2023-05-14T05:32:09.436Z,46.8734
2023-05-14T05:33:11.266Z,46.6263
2023-05-14T05:34:12.726Z,46.5158
2023-05-14T05:35:14.501Z,46.8836
2023-05-14T05:36:16.077Z,46.2036
2023-05-14T05:37:17.784Z,46.4555
2023-05-14T05:38:19.424Z,46.4081
2023-05-14T05:39:21.067Z,46.1380
2023-05-14T05:40:22.770Z,46.4311
2023-05-14T05:41:24.316Z,47.7560
2023-05-14T05:42:25.913Z,47.6357
2023-05-14T05:43:27.582Z,47.1821
2023-05-14T05:44:29.263Z,46.2806
2023-05-14T05:45:30.867Z,46.0284
2023-05-14T05:46:32.603Z,46.7941
2023-05-14T05:47:34.143Z,46.4580
2023-05-14T05:48:35.763Z,46.7106
2023-05-14T05:49:37.455Z,46.4197
2023-05-14T05:50:39.078Z,46.0575
2023-05-14T05:51:40.714Z,46.3105
2023-05-14T05:52:42.314Z,47.5755
2023-05-14T05:53:44.903Z,46.4188
2023-05-14T05:54:45.671Z,46.6270
2023-05-14T05:55:47.317Z,46.4825
2023-05-14T05:56:48.888Z,46.4264
2023-05-14T05:57:50.602Z,46.8198
2023-05-14T05:58:52.949Z,46.8160
2023-05-14T05:59:54.911Z,47.4059
2023-05-14T06:00:55.468Z,47.3163
2023-05-14T06:01:57.194Z,46.9377
2023-05-14T06:02:58.822Z,46.8858
2023-05-14T06:04:00.512Z,47.3564
2023-05-14T06:05:02.214Z,46.8265
2023-05-14T06:06:03.734Z,47.2374
2023-05-14T06:07:05.651Z,46.8715
2023-05-14T06:08:07.028Z,46.7494
2023-05-14T06:09:08.686Z,46.9527
2023-05-14T06:10:10.358Z,48.0113
2023-05-14T06:11:11.894Z,46.7741
2023-05-14T06:12:13.624Z,47.1140
2023-05-14T06:13:15.229Z,47.1855
2023-05-14T06:14:16.937Z,46.9161
2023-05-14T06:15:18.917Z,46.9603
2023-05-14T06:16:20.199Z,47.1845
2023-05-14T06:17:21.811Z,46.3541
2023-05-14T06:18:23.485Z,47.0298
2023-05-14T06:19:25.145Z,47.0889
2023-05-14T06:20:26.906Z,46.9351
2023-05-14T06:21:28.408Z,47.4498
2023-05-14T06:22:30.041Z,47.0250
2023-05-14T06:23:31.641Z,46.3702
2023-05-14T06:24:33.448Z,46.9741
2023-05-14T06:25:34.976Z,46.9376
2023-05-14T06:26:36.632Z,46.7304
2023-05-14T06:27:38.246Z,47.0849
2023-05-14T06:28:39.992Z,47.2114
2023-05-14T06:29:41.563Z,46.2865
2023-05-14T06:30:43.283Z,46.5638
2023-05-14T06:31:44.898Z,46.4431
2023-05-14T06:32:46.593Z,46.6789
2023-05-14T06:33:48.112Z,47.7461
2023-05-14T06:34:49.883Z,46.6674
2023-05-14T06:35:51.446Z,46.7718
2023-05-14T06:36:53.103Z,46.7664
2023-05-14T06:37:54.803Z,46.3936
2023-05-14T06:38:56.368Z,47.0977
2023-05-14T06:39:58.172Z,47.8312
2023-05-14T06:40:59.707Z,47.2344
2023-05-14T06:42:01.367Z,46.5034
2023-05-14T06:43:02.987Z,46.7582
2023-05-14T06:44:04.603Z,46.6437
2023-05-14T06:45:06.256Z,46.9049
2023-05-14T06:46:08.426Z,47.9634
2023-05-14T06:47:09.615Z,46.6729
2023-05-14T06:48:11.235Z,47.1457
2023-05-14T06:49:12.852Z,47.2250
2023-05-14T06:50:14.561Z,46.7831
2023-05-14T06:51:16.901Z,47.3919
2023-05-14T06:52:17.766Z,47.7111
2023-05-14T06:53:19.419Z,48.0464
2023-05-14T06:54:21.068Z,47.9841
2023-05-14T06:55:22.700Z,48.8236
2023-05-14T06:56:24.405Z,48.2138
2023-05-14T06:57:25.943Z,47.6126
2023-05-14T06:58:27.627Z,47.5964
2023-05-14T06:59:29.216Z,48.0393
2023-05-14T07:00:30.980Z,47.4185
2023-05-14T07:01:32.532Z,47.6977
2023-05-14T07:02:34.158Z,48.0943
2023-05-14T07:03:36.301Z,47.5349
2023-05-14T07:04:37.469Z,47.2612
2023-05-14T07:05:39.048Z,47.3875
2023-05-14T07:06:40.801Z,47.0965
2023-05-14T07:07:42.356Z,47.6350
2023-05-14T07:08:44.051Z,47.4039
2023-05-14T07:09:45.630Z,47.2045
2023-05-14T07:10:47.385Z,48.0542
2023-05-14T07:11:49.480Z,47.3358
2023-05-14T07:12:50.616Z,47.2364
2023-05-14T07:13:52.266Z,47.7116
2023-05-14T07:14:53.933Z,47.0091
2023-05-14T07:15:55.533Z,47.2259
2023-05-14T07:16:57.245Z,48.2695
2023-05-14T07:17:58.859Z,47.0094
2023-05-14T07:19:00.558Z,47.5051
2023-05-14T07:20:02.134Z,47.6265
2023-05-14T07:21:03.801Z,47.0231
2023-05-14T07:22:05.414Z,47.3959
2023-05-14T07:23:07.050Z,47.8425
2023-05-14T07:24:08.716Z,46.9990
2023-05-14T07:25:10.344Z,47.4171
2023-05-14T07:26:12.015Z,47.7062
2023-05-14T07:27:13.615Z,47.2446
2023-05-14T07:28:15.254Z,48.0964
2023-05-14T07:29:16.983Z,48.4682
2023-05-14T07:30:18.533Z,47.8029
2023-05-14T07:31:20.309Z,48.0196
2023-05-14T07:32:21.852Z,47.9379
2023-05-14T07:33:23.509Z,47.6050
2023-05-14T07:34:25.148Z,48.1488
2023-05-14T07:35:26.747Z,48.6057
2023-05-14T07:36:28.426Z,47.2620
2023-05-14T07:37:30.109Z,47.8004
2023-05-14T07:38:31.720Z,47.7793
2023-05-14T07:39:33.345Z,47.3335
2023-05-14T07:40:34.980Z,48.2040
2023-05-14T07:41:37.333Z,47.5667
2023-05-14T07:42:38.263Z,47.6126
2023-05-14T07:43:39.949Z,48.1851
2023-05-14T07:44:41.616Z,48.0189
2023-05-14T07:45:43.214Z,47.5225
2023-05-14T07:46:44.928Z,48.5940
2023-05-14T07:47:46.534Z,49.3619
2023-05-14T07:48:48.126Z,49.3748
2023-05-14T07:49:49.778Z,49.1546
2023-05-14T07:50:51.444Z,48.8822
2023-05-14T07:51:53.843Z,48.8212
2023-05-14T07:52:54.813Z,48.0806
2023-05-14T07:53:56.512Z,47.4942
2023-05-14T07:54:58.279Z,48.2684
2023-05-14T07:55:59.770Z,48.9258
2023-05-14T07:57:01.511Z,49.1282
2023-05-14T07:58:03.574Z,49.0313
2023-05-14T07:59:04.751Z,48.5736
2023-05-14T08:00:06.545Z,47.8560
2023-05-14T08:01:09.078Z,48.4945
2023-05-14T08:02:09.711Z,48.9273
2023-05-14T08:03:11.452Z,48.4837
2023-05-14T08:04:13.159Z,48.5019
2023-05-14T08:05:14.608Z,49.5224
2023-05-14T08:06:16.273Z,48.6181
2023-05-14T08:07:17.906Z,48.5032
2023-05-14T08:08:19.516Z,48.6971
2023-05-14T08:09:21.210Z,47.9219
2023-05-14T08:10:24.025Z,48.6375
2023-05-14T08:11:24.420Z,48.3177
2023-05-14T08:12:27.094Z,48.9811
2023-05-14T08:13:27.722Z,50.8458
2023-05-14T08:14:29.632Z,51.7494
2023-05-14T08:15:31.023Z,51.5315
2023-05-14T08:16:32.785Z,51.9533
2023-05-14T08:17:34.363Z,52.0141
2023-05-14T08:18:36.040Z,52.5076
2023-05-14T08:19:38.561Z,53.4849
2023-05-14T08:20:39.294Z,53.9352
2023-05-14T08:21:41.052Z,53.2091
2023-05-14T08:22:42.685Z,53.2771
2023-05-14T08:23:44.552Z,52.4043
2023-05-14T08:24:45.926Z,53.6139
2023-05-14T08:25:47.519Z,55.1551
2023-05-14T08:26:49.264Z,56.0004
2023-05-14T08:27:50.823Z,53.6700
2023-05-14T08:28:52.488Z,53.6811
2023-05-14T08:29:54.056Z,53.6083
2023-05-14T08:30:55.759Z,54.7473
2023-05-14T08:31:57.610Z,55.0970
2023-05-14T08:32:59.716Z,54.9258
2023-05-14T08:34:00.687Z,54.0587
2023-05-14T08:35:02.278Z,53.7400
2023-05-14T08:36:03.996Z,55.1566
2023-05-14T08:37:05.640Z,55.7117
2023-05-14T08:38:08.266Z,56.3122
2023-05-14T08:39:09.029Z,54.6068
2023-05-14T08:40:10.523Z,54.8930
2023-05-14T08:41:12.317Z,54.4883
2023-05-14T08:42:13.858Z,55.3702
2023-05-14T08:43:15.580Z,56.6410
2023-05-14T08:44:17.155Z,56.6377
2023-05-14T08:45:18.864Z,54.6251
2023-05-14T08:46:20.422Z,53.9553
2023-05-14T08:47:22.123Z,54.2500
2023-05-14T08:48:23.774Z,56.5322
2023-05-14T08:49:25.366Z,57.1835
2023-05-14T08:50:27.455Z,55.9841
2023-05-14T08:51:28.636Z,54.1343
2023-05-14T08:52:30.283Z,53.8405
2023-05-14T08:53:31.953Z,55.1701
2023-05-14T08:54:33.619Z,56.3604
2023-05-14T08:55:35.213Z,57.0247
2023-05-14T08:56:36.830Z,54.5924
2023-05-14T08:57:38.542Z,53.9720
2023-05-14T08:58:40.200Z,54.1347
2023-05-14T08:59:41.894Z,56.0686
2023-05-14T09:00:43.459Z,56.8800
2023-05-14T09:01:45.146Z,57.1037
2023-05-14T09:02:46.805Z,54.4289
2023-05-14T09:03:48.351Z,53.6691
2023-05-14T09:04:49.979Z,54.9108
2023-05-14T09:05:51.807Z,56.4731
2023-05-14T09:06:53.305Z,57.4098
2023-05-14T09:07:55.009Z,57.3969
2023-05-14T09:08:56.586Z,54.5596
2023-05-14T09:09:58.322Z,54.1367
2023-05-14T09:11:00.868Z,55.2885
2023-05-14T09:12:01.583Z,57.4874
2023-05-14T09:13:03.215Z,58.7517
2023-05-14T09:14:04.775Z,57.9791
2023-05-14T09:15:07.250Z,55.3352
2023-05-14T09:16:08.156Z,54.9135
2023-05-14T09:17:09.828Z,56.0965
2023-05-14T09:18:11.372Z,57.8791
2023-05-14T09:19:13.193Z,58.2350
2023-05-14T09:20:14.693Z,57.2403
2023-05-14T09:21:16.491Z,55.3140
2023-05-14T09:22:17.985Z,55.2066
2023-05-14T09:23:19.710Z,56.5628
2023-05-14T09:24:21.381Z,57.6692
2023-05-14T09:25:24.034Z,57.5106
2023-05-14T09:26:24.520Z,58.0179
2023-05-14T09:27:27.244Z,55.5013
2023-05-14T09:28:27.844Z,55.6677
2023-05-14T09:29:29.494Z,57.5811
2023-05-14T09:30:32.522Z,58.9357
2023-05-14T09:31:32.746Z,59.3610
2023-05-14T09:32:35.552Z,57.2121
2023-05-14T09:33:36.116Z,56.1983
2023-05-14T09:34:38.108Z,56.2556
2023-05-14T09:35:39.531Z,57.8479
2023-05-14T09:36:41.165Z,58.9928
2023-05-14T09:37:42.800Z,60.1786
2023-05-14T09:38:44.441Z,58.7400
2023-05-14T09:39:45.982Z,56.4258
2023-05-14T09:40:47.750Z,56.3912
2023-05-14T09:41:49.327Z,58.5455
2023-05-14T09:42:50.982Z,59.7803
2023-05-14T09:43:52.634Z,60.0431
2023-05-14T09:44:54.261Z,59.2459
2023-05-14T09:45:55.960Z,56.9267
2023-05-14T09:46:57.614Z,56.6471
2023-05-14T09:48:00.329Z,58.2000
2023-05-14T09:49:00.806Z,59.1853
2023-05-14T09:50:03.425Z,59.6335
2023-05-14T09:51:04.738Z,59.2723
2023-05-14T09:52:05.728Z,56.5087
2023-05-14T09:53:07.472Z,55.8770
2023-05-14T09:54:09.105Z,57.4035
2023-05-14T09:55:10.675Z,58.3027
2023-05-14T09:56:12.485Z,58.2953
2023-05-14T09:57:14.055Z,56.7813
2023-05-14T09:58:15.667Z,55.3965
2023-05-14T09:59:17.593Z,55.3333
2023-05-14T10:00:18.986Z,56.7933
2023-05-14T10:01:21.704Z,57.9723
2023-05-14T10:02:22.328Z,58.4760
2023-05-14T10:03:23.929Z,55.6425
2023-05-14T10:04:25.511Z,54.9611
2023-05-14T10:05:27.209Z,55.3306
2023-05-14T10:06:28.820Z,57.5107
2023-05-14T10:07:30.449Z,58.2250
2023-05-14T10:08:32.639Z,57.3691
2023-05-14T10:09:33.784Z,54.8994
2023-05-14T10:10:35.385Z,54.3097
2023-05-14T10:11:38.101Z,54.2619
2023-05-14T10:12:38.689Z,56.3607
2023-05-14T10:13:40.282Z,57.0103
2023-05-14T10:14:42.026Z,56.4009
2023-05-14T10:15:43.612Z,53.6706
2023-05-14T10:16:45.274Z,52.6273
2023-05-14T10:17:47.085Z,53.8565
2023-05-14T10:18:48.661Z,56.7102
2023-05-14T10:19:50.223Z,57.0724
2023-05-14T10:20:51.799Z,57.2949
2023-05-14T10:21:53.521Z,54.4697
2023-05-14T10:22:55.138Z,53.8546
2023-05-14T10:23:56.973Z,55.3147
2023-05-14T10:24:58.540Z,57.1756
2023-05-14T10:26:00.201Z,57.8242
2023-05-14T10:27:01.774Z,57.5095
2023-05-14T10:28:03.385Z,54.1384
2023-05-14T10:29:05.026Z,53.2107
2023-05-14T10:30:06.656Z,54.7991
2023-05-14T10:31:08.264Z,57.0753
2023-05-14T10:32:10.062Z,57.7475
2023-05-14T10:33:12.619Z,57.2920
2023-05-14T10:34:13.193Z,54.6078
2023-05-14T10:35:15.863Z,53.6695
2023-05-14T10:36:16.484Z,55.7563
2023-05-14T10:37:18.134Z,57.6631
2023-05-14T10:38:19.712Z,57.8781
2023-05-14T10:39:21.444Z,55.8924
2023-05-14T10:40:23.133Z,54.4633
2023-05-14T10:41:24.762Z,54.5156
2023-05-14T10:42:26.315Z,56.2058
2023-05-14T10:43:28.000Z,58.1808
2023-05-14T10:44:29.632Z,57.7380
2023-05-14T10:45:31.334Z,55.2698
2023-05-14T10:46:32.936Z,54.0730
2023-05-14T10:47:34.605Z,54.4967
2023-05-14T10:48:36.196Z,56.3649
2023-05-14T10:49:43.349Z,58.1301
2023-05-14T10:50:39.516Z,58.1278
2023-05-14T10:51:41.253Z,54.9179
2023-05-14T10:52:42.780Z,54.3951
2023-05-14T10:53:44.494Z,54.9986
2023-05-14T10:54:46.080Z,56.2740
2023-05-14T10:55:47.732Z,56.9239
2023-05-14T10:56:49.407Z,58.1021
2023-05-14T10:57:51.017Z,54.8585
2023-05-14T10:58:52.664Z,53.8409
2023-05-14T10:59:55.171Z,55.0793
2023-05-14T11:00:56.025Z,56.8117
2023-05-14T11:01:57.749Z,57.5232
2023-05-14T11:02:59.368Z,57.2508
2023-05-14T11:04:01.017Z,54.1158
2023-05-14T11:05:04.440Z,53.8415
2023-05-14T11:06:04.235Z,54.8814
2023-05-14T11:07:05.905Z,57.1429
2023-05-14T11:08:07.574Z,58.1882
2023-05-14T11:09:09.131Z,56.0861
2023-05-14T11:10:10.859Z,54.5147
2023-05-14T11:11:12.508Z,54.4448
2023-05-14T11:12:14.065Z,55.9846
2023-05-14T11:13:15.681Z,57.3142
2023-05-14T11:14:17.434Z,57.8207
2023-05-14T11:15:19.029Z,56.5536
2023-05-14T11:16:23.760Z,55.4563
2023-05-14T11:17:22.302Z,54.4545
2023-05-14T11:18:23.958Z,56.1217
2023-05-14T11:19:25.627Z,58.3721
2023-05-14T11:20:27.346Z,60.0084
2023-05-14T11:21:29.007Z,59.1030
2023-05-14T11:22:30.552Z,56.5810
2023-05-14T11:23:32.168Z,55.3751
2023-05-14T11:24:33.832Z,56.9228
2023-05-14T11:25:35.547Z,59.5422
2023-05-14T11:26:38.122Z,60.2774
2023-05-14T11:27:38.762Z,58.7127
2023-05-14T11:28:40.562Z,56.6617
2023-05-14T11:29:42.090Z,55.3486
2023-05-14T11:30:43.712Z,56.4414
2023-05-14T11:31:45.475Z,57.7073
2023-05-14T11:32:47.001Z,58.6631
2023-05-14T11:33:48.641Z,57.5838
2023-05-14T11:34:50.573Z,56.8983
2023-05-14T11:35:51.964Z,56.0646
2023-05-14T11:36:53.547Z,55.9532
2023-05-14T11:37:55.204Z,57.1180
2023-05-14T11:38:56.824Z,59.1514
2023-05-14T11:39:58.558Z,59.1710
2023-05-14T11:41:00.160Z,56.3775
2023-05-14T11:42:01.739Z,55.3678
2023-05-14T11:43:03.425Z,55.0821
2023-05-14T11:44:05.964Z,56.2645
2023-05-14T11:45:06.762Z,57.7363
2023-05-14T11:46:08.436Z,58.3334
2023-05-14T11:47:10.059Z,55.7465
2023-05-14T11:48:11.649Z,55.9512
2023-05-14T11:49:13.308Z,55.4374
2023-05-14T11:50:14.906Z,56.1837
2023-05-14T11:51:16.717Z,57.6275
2023-05-14T11:52:18.209Z,57.2335
2023-05-14T11:53:19.873Z,54.2490
2023-05-14T11:54:21.593Z,54.1801
2023-05-14T11:55:23.207Z,54.5559
2023-05-14T11:56:24.820Z,54.7987
2023-05-14T11:57:26.503Z,55.8525
2023-05-14T11:58:28.048Z,54.4591
2023-05-14T11:59:29.663Z,50.4854
2023-05-14T12:00:31.317Z,48.6371
2023-05-14T12:01:33.016Z,51.5373
2023-05-14T12:02:34.712Z,54.4076
2023-05-14T12:03:36.386Z,57.1975
2023-05-14T12:04:37.939Z,58.0738
2023-05-14T12:05:40.039Z,56.3261
2023-05-14T12:06:41.189Z,55.8855
2023-05-14T12:07:42.820Z,55.8142
2023-05-14T12:08:45.483Z,56.8955
2023-05-14T12:09:46.077Z,60.0649
2023-05-14T12:10:47.753Z,58.9119
2023-05-14T12:11:49.412Z,56.9935
2023-05-14T12:12:51.064Z,56.4608
2023-05-14T12:13:52.643Z,56.5228
2023-05-14T12:14:54.307Z,57.1880
2023-05-14T12:15:56.015Z,59.3813
2023-05-14T12:16:57.653Z,59.5064
2023-05-14T12:17:59.276Z,57.9941
2023-05-14T12:19:01.560Z,56.4245
2023-05-14T12:20:02.545Z,56.5983
2023-05-14T12:21:04.230Z,57.2342
2023-05-14T12:22:06.045Z,58.2560
2023-05-14T12:23:07.658Z,59.4301
2023-05-14T12:24:09.229Z,58.6253
2023-05-14T12:25:10.924Z,55.8488